Time;durP1;ratioP1;P1;durP2;ratioP2;P2;SDS_P1;SDS_P2;PMS_P1;PMS_P2;Temp;Humidity;BMP_temperature;BMP_pressure;BME280_temperature;BME280_humidity;BME280_pressure;Samples;Min_cycle;Max_cycle;Signal;HPM_P1;HPM_P2
2022/06/08 00:00:08;;;;;;;1.95;1.15;;;13.90;99.90;;;;;;5073549;28;20051;-71
2022/06/08 00:02:37;;;;;;;2.40;1.50;;;14.00;99.90;;;;;;5073974;28;20045;-73
2022/06/08 00:05:05;;;;;;;1.67;1.20;;;14.00;99.90;;;;;;5066399;28;20034;-72
2022/06/08 00:07:32;;;;;;;1.92;1.02;;;14.00;99.90;;;;;;5069069;28;20044;-72
2022/06/08 00:09:59;;;;;;;1.60;1.08;;;14.00;99.90;;;;;;5069416;28;20086;-72
2022/06/08 00:12:26;;;;;;;0.98;0.88;;;14.00;99.90;;;;;;5066304;28;20051;-71
2022/06/08 00:14:54;;;;;;;1.50;1.13;;;13.90;99.90;;;;;;5062796;28;20398;-72
2022/06/08 00:17:21;;;;;;;;;;;13.90;99.90;;;;;;5068827;28;20037;-72
2022/06/08 00:19:48;;;;;;;3.30;0.95;;;13.90;99.90;;;;;;5073636;28;19924;-72
2022/06/08 00:22:17;;;;;;;1.90;0.88;;;13.90;99.90;;;;;;5073289;28;20124;-72
2022/06/08 00:24:44;;;;;;;1.20;0.95;;;13.80;99.90;;;;;;5063312;28;20052;-70
2022/06/08 00:27:12;;;;;;;1.58;0.80;;;13.80;99.90;;;;;;5067069;28;20043;-71
2022/06/08 00:29:39;;;;;;;1.92;0.95;;;13.80;99.90;;;;;;5055261;28;20044;-72
2022/06/08 00:32:07;;;;;;;3.17;0.82;;;13.80;99.90;;;;;;5054519;28;20505;-71
2022/06/08 00:34:33;;;;;;;;;;;13.80;99.90;;;;;;5060778;28;20336;-72
2022/06/08 00:37:00;;;;;;;1.90;1.00;;;13.80;99.90;;;;;;5055030;28;19981;-71
2022/06/08 00:39:27;;;;;;;2.50;1.30;;;13.80;99.90;;;;;;5073189;28;20055;-71
2022/06/08 00:42:07;;;;;;;2.92;1.15;;;13.70;99.90;;;;;;5054290;28;20036;-72
2022/06/08 00:44:42;;;;;;;1.80;1.40;;;13.80;99.90;;;;;;5064875;28;20045;-72
2022/06/08 00:47:13;;;;;;;1.70;1.00;;;13.80;99.90;;;;;;5055513;28;20052;-72
2022/06/08 00:50:06;;;;;;;1.65;1.25;;;13.80;99.90;;;;;;5073939;28;20043;-71
2022/06/08 00:52:34;;;;;;;2.28;1.30;;;13.80;99.90;;;;;;5029662;28;20061;-71
2022/06/08 00:55:02;;;;;;;;;;;13.90;99.90;;;;;;5073874;28;20409;-71
2022/06/08 00:57:49;;;;;;;;;;;13.90;99.90;;;;;;5073623;28;20390;-71
2022/06/08 01:00:20;;;;;;;3.40;1.60;;;13.90;99.90;;;;;;5066576;28;19924;-70
2022/06/08 01:02:47;;;;;;;2.22;1.40;;;13.90;99.90;;;;;;5046458;28;20045;-71
2022/06/08 01:05:31;;;;;;;1.58;1.30;;;13.80;99.90;;;;;;5055209;28;20052;-71
2022/06/08 01:08:05;;;;;;;3.55;2.25;;;13.80;99.90;;;;;;5050481;28;20042;-72
2022/06/08 01:10:43;;;;;;;2.65;1.55;;;13.80;99.90;;;;;;5051203;28;20067;-71
2022/06/08 01:13:12;;;;;;;1.73;1.55;;;13.90;99.90;;;;;;5054817;28;20044;-70
2022/06/08 01:15:40;;;;;;;;;;;13.90;99.90;;;;;;5069442;28;20055;-71
2022/06/08 01:18:09;;;;;;;2.58;1.50;;;13.80;99.90;;;;;;5047678;28;19942;-70
2022/06/08 01:20:44;;;;;;;2.67;1.75;;;13.80;99.90;;;;;;5054315;28;20044;-71
2022/06/08 01:23:13;;;;;;;2.65;2.13;;;13.80;99.90;;;;;;5054271;28;20119;-71
2022/06/08 01:25:58;;;;;;;2.83;1.73;;;13.70;99.90;;;;;;5046330;28;20118;-71
2022/06/08 01:28:35;;;;;;;4.13;1.58;;;13.70;99.90;;;;;;5037953;28;20041;-70
2022/06/08 01:31:09;;;;;;;2.15;1.60;;;13.70;99.90;;;;;;5053625;28;20048;-70
2022/06/08 01:33:55;;;;;;;4.57;1.50;;;13.60;99.90;;;;;;5063843;28;20037;-70
2022/06/08 01:36:38;;;;;;;4.05;1.60;;;13.60;99.90;;;;;;5072657;28;20093;-70
2022/06/08 01:39:27;;;;;;;3.80;1.48;;;13.70;99.90;;;;;;5070996;28;20097;-70
2022/06/08 01:42:26;;;;;;;5.15;1.20;;;13.60;99.90;;;;;;5063594;28;20041;-71
2022/06/08 01:45:33;;;;;;;2.80;1.30;;;13.60;99.90;;;;;;5035660;28;20045;-72
2022/06/08 01:48:07;;;;;;;2.10;1.00;;;13.60;99.90;;;;;;5070295;28;20462;-71
2022/06/08 01:50:52;;;;;;;4.13;1.20;;;13.60;99.90;;;;;;5063918;28;20492;-71
2022/06/08 01:53:31;;;;;;;4.47;1.60;;;13.60;99.90;;;;;;5048989;28;20050;-71
2022/06/08 01:56:02;;;;;;;2.55;1.52;;;13.70;99.90;;;;;;5053912;28;20534;-71
2022/06/08 01:59:02;;;;;;;2.72;1.55;;;13.60;99.90;;;;;;5053135;28;20059;-71
2022/06/08 02:01:55;;;;;;;5.18;1.52;;;13.60;99.90;;;;;;5037812;28;20040;-71
2022/06/08 02:04:35;;;;;;;6.07;1.73;;;13.60;99.90;;;;;;5052120;28;20048;-72
2022/06/08 02:07:11;;;;;;;2.25;1.80;;;13.60;99.90;;;;;;5051727;28;20045;-72
2022/06/08 02:09:46;;;;;;;3.08;1.45;;;13.60;99.90;;;;;;5047894;28;20055;-71
2022/06/08 02:12:17;;;;;;;2.35;1.27;;;13.60;99.90;;;;;;5048387;28;20131;-71
2022/06/08 02:15:16;;;;;;;3.67;1.20;;;13.60;99.90;;;;;;5053586;28;20078;-71
2022/06/08 02:17:56;;;;;;;2.65;1.50;;;13.60;99.90;;;;;;5043540;28;20132;-71
2022/06/08 02:20:38;;;;;;;4.63;1.60;;;13.60;99.90;;;;;;5053543;28;20098;-71
2022/06/08 02:23:11;;;;;;;5.55;2.65;;;13.60;99.90;;;;;;5071835;28;20098;-72
2022/06/08 02:25:50;;;;;;;3.13;1.65;;;13.60;99.90;;;;;;5059862;28;20051;-71
2022/06/08 02:28:32;;;;;;;3.33;1.50;;;13.60;99.90;;;;;;5053384;28;20047;-71
2022/06/08 02:31:22;;;;;;;2.85;1.20;;;13.60;99.90;;;;;;5052641;28;20421;-71
2022/06/08 02:36:50;;;;;;;3.15;1.83;;;13.60;99.90;;;;;;5062877;28;20051;-71
2022/06/08 02:39:30;;;;;;;4.47;1.80;;;13.60;99.90;;;;;;5053459;28;20037;-71
2022/06/08 02:42:05;;;;;;;4.38;1.40;;;13.50;99.90;;;;;;5053259;28;20074;-72
2022/06/08 02:44:33;;;;;;;2.10;1.40;;;13.50;99.90;;;;;;5049098;28;20114;-72
2022/06/08 02:47:05;;;;;;;3.50;1.50;;;13.50;99.90;;;;;;5041299;28;20144;-73
2022/06/08 02:49:36;;;;;;;4.03;1.60;;;13.50;99.90;;;;;;5051329;28;20098;-72
2022/06/08 02:52:20;;;;;;;2.30;1.40;;;13.50;99.90;;;;;;5021998;28;20067;-72
2022/06/08 02:54:51;;;;;;;1.70;1.45;;;13.50;99.90;;;;;;5068992;28;20067;-72
2022/06/08 02:57:43;;;;;;;4.25;1.20;;;13.50;99.90;;;;;;5053367;28;20405;-72
2022/06/08 03:00:21;;;;;;;1.52;1.30;;;13.40;99.90;;;;;;5066959;28;20049;-72
2022/06/08 03:02:58;;;;;;;3.05;1.65;;;13.40;99.90;;;;;;5044852;28;20141;-72
2022/06/08 03:05:37;;;;;;;6.95;1.58;;;13.50;99.90;;;;;;5053205;28;20048;-72
2022/06/08 03:08:19;;;;;;;4.30;1.67;;;13.40;99.90;;;;;;5049463;28;20060;-72
2022/06/08 03:10:48;;;;;;;3.10;2.00;;;13.40;99.90;;;;;;5042869;28;20073;-71
2022/06/08 03:13:33;;;;;;;4.32;2.00;;;13.40;99.90;;;;;;5053216;28;20117;-71
2022/06/08 03:16:06;;;;;;;3.40;2.30;;;13.40;99.90;;;;;;5071187;28;20485;-72
2022/06/08 03:18:35;;;;;;;4.95;2.40;;;13.40;99.90;;;;;;5043871;28;20041;-72
2022/06/08 03:21:04;;;;;;;6.07;2.72;;;13.40;99.90;;;;;;5052710;28;20041;-72
2022/06/08 03:23:33;;;;;;;5.47;2.95;;;13.40;99.90;;;;;;5071185;28;20041;-73
2022/06/08 03:26:02;;;;;;;3.20;2.70;;;13.50;99.90;;;;;;5052395;28;20048;-71
2022/06/08 03:28:31;;;;;;;5.78;2.80;;;13.40;99.90;;;;;;5044593;28;20068;-72
2022/06/08 03:30:58;;;;;;;4.00;2.90;;;13.40;99.90;;;;;;5070464;28;20074;-71
2022/06/08 03:33:25;;;;;;;5.05;3.30;;;13.30;99.90;;;;;;5053043;28;20527;-71
2022/06/08 03:35:52;;;;;;;6.53;3.10;;;13.30;99.90;;;;;;5061304;28;20052;-71
2022/06/08 03:38:22;;;;;;;10.25;3.85;;;13.30;99.90;;;;;;5047916;28;20036;-71
2022/06/08 03:40:51;;;;;;;6.10;3.53;;;13.20;99.90;;;;;;5053549;28;20080;-71
2022/06/08 03:43:18;;;;;;;8.07;3.47;;;13.20;99.90;;;;;;5052141;28;20060;-71
2022/06/08 03:45:49;;;;;;;8.15;3.30;;;13.20;99.90;;;;;;5066488;28;20106;-71
2022/06/08 03:48:18;;;;;;;3.15;2.50;;;13.20;99.90;;;;;;5074596;28;20417;-72
2022/06/08 03:50:48;;;;;;;4.78;2.53;;;13.20;99.90;;;;;;5056201;28;20048;-72
2022/06/08 03:53:21;;;;;;;6.60;2.63;;;13.20;99.90;;;;;;5062377;28;20037;-71
2022/06/08 03:55:50;;;;;;;5.10;2.70;;;13.20;99.90;;;;;;5054956;28;20604;-72
2022/06/08 03:58:18;;;;;;;3.13;2.83;;;13.20;99.90;;;;;;5074095;28;20567;-71
2022/06/08 04:00:47;;;;;;;3.83;2.80;;;13.20;99.90;;;;;;5055205;28;20132;-72
2022/06/08 04:03:17;;;;;;;5.28;2.83;;;13.20;99.90;;;;;;5049925;28;20041;-71
2022/06/08 04:05:45;;;;;;;9.07;2.42;;;13.20;99.90;;;;;;5054531;28;20098;-71
2022/06/08 04:08:18;;;;;;;5.45;2.72;;;13.20;99.90;;;;;;5056025;28;20044;-70
2022/06/08 04:10:48;;;;;;;7.40;2.80;;;13.20;99.90;;;;;;5053127;28;20143;-72
2022/06/08 04:13:17;;;;;;;7.45;2.97;;;13.20;99.90;;;;;;5036017;28;20069;-71
2022/06/08 04:15:44;;;;;;;3.97;2.80;;;13.20;99.90;;;;;;5041306;28;20079;-71
2022/06/08 04:18:21;;;;;;;3.55;2.85;;;13.30;99.90;;;;;;5055444;28;20040;-71
2022/06/08 04:20:54;;;;;;;5.30;2.78;;;13.20;99.90;;;;;;5047259;28;20049;-71
2022/06/08 04:23:25;;;;;;;3.92;2.30;;;13.20;99.90;;;;;;5055888;28;20094;-71
2022/06/08 04:25:54;;;;;;;5.35;2.60;;;13.20;99.90;;;;;;5055716;28;20095;-71
2022/06/08 04:28:22;;;;;;;4.57;2.95;;;13.20;99.90;;;;;;5055322;28;20075;-70
2022/06/08 04:30:54;;;;;;;3.92;2.92;;;13.30;99.90;;;;;;5047132;28;20075;-72
2022/06/08 04:33:21;;;;;;;;;;;13.30;99.90;;;;;;5074055;28;20385;-71
2022/06/08 04:35:49;;;;;;;5.85;3.78;;;13.30;99.90;;;;;;5069813;28;20299;-72
2022/06/08 04:38:16;;;;;;;3.80;3.10;;;13.30;99.90;;;;;;5058911;28;20037;-71
2022/06/08 04:40:45;;;;;;;4.43;3.40;;;13.40;99.90;;;;;;5035313;28;20049;-71
2022/06/08 04:43:13;;;;;;;5.15;3.38;;;13.40;99.90;;;;;;5035798;28;20045;-70
2022/06/08 04:45:40;;;;;;;5.45;4.13;;;13.40;99.90;;;;;;5052072;28;20428;-71
2022/06/08 04:48:10;;;;;;;8.13;3.88;;;13.40;99.90;;;;;;5055216;28;20102;-71
2022/06/08 04:50:38;;;;;;;5.40;4.05;;;13.40;99.90;;;;;;5055087;28;20106;-71
2022/06/08 04:53:05;;;;;;;4.97;3.85;;;13.40;99.90;;;;;;5054296;28;20071;-71
2022/06/08 04:55:35;;;;;;;10.40;4.07;;;13.50;99.90;;;;;;5030664;28;20090;-71
2022/06/08 04:58:03;;;;;;;8.52;4.13;;;13.60;99.90;;;;;;5054769;28;20089;-70
2022/06/08 05:00:31;;;;;;;6.05;4.13;;;13.80;99.90;;;;;;5053640;28;20041;-71
2022/06/08 05:03:01;;;;;;;10.00;4.03;;;13.80;99.90;;;;;;5053444;28;20052;-71
2022/06/08 05:05:36;;;;;;;6.65;3.55;;;13.90;99.90;;;;;;5054448;28;20039;-71
2022/06/08 05:08:08;;;;;;;8.75;4.32;;;14.00;99.90;;;;;;5072075;28;20029;-71
2022/06/08 05:10:38;;;;;;;4.15;3.03;;;14.20;99.90;;;;;;5052927;28;20405;-71
2022/06/08 05:13:09;;;;;;;8.07;3.20;;;14.30;99.90;;;;;;5054331;28;20386;-71
2022/06/08 05:15:41;;;;;;;3.65;3.28;;;14.30;99.90;;;;;;5054484;28;20056;-72
2022/06/08 05:18:10;;;;;;;4.15;2.75;;;14.30;99.90;;;;;;5072308;28;20037;-70
2022/06/08 05:20:40;;;;;;;3.50;2.75;;;14.30;99.90;;;;;;5053758;28;20041;-72
2022/06/08 05:23:12;;;;;;;2.30;2.03;;;14.20;99.90;;;;;;5054303;28;20537;-71
2022/06/08 05:25:42;;;;;;;3.38;2.40;;;14.20;99.90;;;;;;5054118;28;20048;-71
2022/06/08 05:28:11;;;;;;;4.97;2.40;;;14.30;99.90;;;;;;5054190;28;20048;-72
2022/06/08 05:30:46;;;;;;;5.10;2.33;;;14.20;99.90;;;;;;5052684;28;20098;-71
2022/06/08 05:33:14;;;;;;;3.88;3.22;;;14.20;99.90;;;;;;5072068;28;20048;-71
2022/06/08 05:35:41;;;;;;;;;;;14.20;99.90;;;;;;5054966;28;20048;-70
2022/06/08 05:38:12;;;;;;;4.18;3.35;;;14.20;99.90;;;;;;5071245;22;19927;-64
2022/06/08 05:40:42;;;;;;;3.88;3.47;;;14.10;99.90;;;;;;5086803;28;20048;-64
2022/06/08 05:43:13;;;;;;;5.45;3.40;;;14.10;99.90;;;;;;5077836;28;20055;-65
2022/06/08 05:45:47;;;;;;;6.30;4.00;;;14.10;99.90;;;;;;5090909;28;20142;-65
2022/06/08 05:48:15;;;;;;;5.80;3.15;;;14.10;99.90;;;;;;5089718;28;20048;-65
2022/06/08 05:50:43;;;;;;;4.93;3.25;;;14.20;99.90;;;;;;5090191;28;20040;-65
2022/06/08 05:53:15;;;;;;;4.13;2.95;;;14.30;99.90;;;;;;5089428;28;20051;-65
2022/06/08 05:55:43;;;;;;;4.82;2.85;;;14.40;99.90;;;;;;5073749;28;20047;-65
2022/06/08 05:58:12;;;;;;;3.95;2.72;;;14.40;99.90;;;;;;5089355;28;20117;-64
2022/06/08 06:00:42;;;;;;;3.35;2.80;;;14.50;99.90;;;;;;5060655;28;20139;-65
2022/06/08 06:03:12;;;;;;;6.43;2.45;;;14.60;99.90;;;;;;5073529;28;20496;-65
2022/06/08 06:05:40;;;;;;;2.63;2.42;;;14.70;99.90;;;;;;5089929;28;20493;-65
2022/06/08 06:08:10;;;;;;;2.60;2.35;;;14.80;99.90;;;;;;5086222;28;20043;-65
2022/06/08 06:10:44;;;;;;;5.07;2.25;;;14.90;99.90;;;;;;5069985;28;20508;-65
2022/06/08 06:13:14;;;;;;;2.60;2.00;;;14.90;99.90;;;;;;5089302;28;20044;-65
2022/06/08 06:15:46;;;;;;;3.13;1.90;;;14.90;99.90;;;;;;5073170;28;20119;-65
2022/06/08 06:18:16;;;;;;;5.10;2.20;;;15.10;99.90;;;;;;5087033;28;20067;-65
2022/06/08 06:20:49;;;;;;;3.10;1.73;;;15.20;99.90;;;;;;5086871;28;20071;-65
2022/06/08 06:23:39;;;;;;;1.92;1.70;;;15.30;99.90;;;;;;5063238;28;20055;-65
2022/06/08 06:26:15;;;;;;;2.75;1.63;;;15.60;99.90;;;;;;5090451;28;20117;-65
2022/06/08 06:29:02;;;;;;;6.10;2.07;;;15.70;99.90;;;;;;5090341;28;20047;-65
2022/06/08 06:31:48;;;;;;;2.42;1.40;;;15.70;99.90;;;;;;5072007;28;20040;-65
2022/06/08 06:34:21;;;;;;;1.67;1.50;;;15.70;99.90;;;;;;5061692;28;20131;-65
2022/06/08 06:36:53;;;;;;;1.73;1.40;;;15.70;99.90;;;;;;5053089;28;20694;-65
2022/06/08 06:39:26;;;;;;;2.67;1.30;;;15.80;99.90;;;;;;5053157;28;20045;-65
2022/06/08 06:41:59;;;;;;;1.70;1.40;;;16.00;99.90;;;;;;5065749;28;20043;-65
2022/06/08 06:44:31;;;;;;;1.83;1.35;;;16.20;99.90;;;;;;5073172;28;20241;-65
2022/06/08 06:47:05;;;;;;;3.95;1.52;;;16.30;99.90;;;;;;5073269;28;20054;-66
2022/06/08 06:50:03;;;;;;;1.92;1.10;;;16.40;99.90;;;;;;5065930;28;20052;-65
2022/06/08 06:52:32;;;;;;;1.40;1.30;;;16.60;99.90;;;;;;5073163;28;20051;-65
2022/06/08 06:55:04;;;;;;;3.35;1.55;;;16.80;99.90;;;;;;5073197;28;20040;-66
2022/06/08 06:57:33;;;;;;;4.68;1.58;;;17.00;99.90;;;;;;5071634;28;20039;-65
2022/06/08 07:00:02;;;;;;;4.22;1.75;;;17.30;99.90;;;;;;5089330;28;20504;-66
2022/06/08 07:02:30;;;;;;;3.08;1.70;;;17.40;99.90;;;;;;5073113;28;20044;-65
2022/06/08 07:04:56;;;;;;;3.55;1.40;;;17.10;99.90;;;;;;5071595;28;20135;-65
2022/06/08 07:07:24;;;;;;;1.58;1.05;;;16.80;99.90;;;;;;5072920;28;20078;-65
2022/06/08 07:09:51;;;;;;;2.28;1.35;;;16.50;99.90;;;;;;5089349;28;20502;-65
2022/06/08 07:12:18;;;;;;;1.80;1.48;;;16.40;99.90;;;;;;5089997;28;20142;-65
2022/06/08 07:14:50;;;;;;;1.98;1.40;;;16.30;99.90;;;;;;5071977;28;20064;-65
2022/06/08 07:17:18;;;;;;;3.90;1.40;;;16.30;99.90;;;;;;5076144;28;20043;-66
2022/06/08 07:19:46;;;;;;;;;;;16.30;99.90;;;;;;5077005;28;20040;-65
2022/06/08 07:22:13;;;;;;;3.33;1.05;;;16.30;99.90;;;;;;5092394;28;20296;-65
2022/06/08 07:24:39;;;;;;;1.50;1.30;;;16.40;99.90;;;;;;5093858;28;20450;-65
2022/06/08 07:27:06;;;;;;;4.78;1.20;;;16.50;99.90;;;;;;5074617;28;20513;-65
2022/06/08 07:29:33;;;;;;;3.00;1.35;;;16.50;99.90;;;;;;5074677;28;20443;-65
2022/06/08 07:32:00;;;;;;;3.33;1.38;;;16.60;99.90;;;;;;5087961;28;20051;-65
2022/06/08 07:34:27;;;;;;;;;;;16.60;99.90;;;;;;5078710;28;20055;-65
2022/06/08 07:36:55;;;;;;;1.67;1.00;;;16.60;99.90;;;;;;5074386;28;20380;-65
2022/06/08 07:39:23;;;;;;;2.60;1.35;;;16.80;99.90;;;;;;5074359;28;20413;-65
2022/06/08 07:41:49;;;;;;;1.23;1.13;;;17.00;99.90;;;;;;5073238;28;20424;-65
2022/06/08 07:44:18;;;;;;;3.22;1.27;;;17.30;99.90;;;;;;5088733;28;20054;-66
2022/06/08 07:46:45;;;;;;;3.75;1.40;;;17.40;99.90;;;;;;5094575;28;20049;-65
2022/06/08 07:52:00;;;;;;;2.28;1.20;;;17.80;99.90;;;;;;5086159;28;20040;-65
2022/06/08 07:54:30;;;;;;;3.67;1.20;;;18.10;99.90;;;;;;5094358;28;20051;-65
2022/06/08 07:56:58;;;;;;;1.38;0.95;;;18.00;99.90;;;;;;5093277;28;20381;-65
2022/06/08 07:59:27;;;;;;;0.80;0.80;;;18.00;99.90;;;;;;5087071;28;20412;-65
2022/06/08 08:01:54;;;;;;;1.55;1.13;;;18.00;99.90;;;;;;5088635;28;20062;-65
2022/06/08 08:04:21;;;;;;;4.18;1.10;;;18.00;99.90;;;;;;5094043;28;20047;-66
2022/06/08 08:06:48;;;;;;;1.23;1.13;;;18.00;99.90;;;;;;5093175;28;20044;-65
2022/06/08 08:09:20;;;;;;;3.60;1.10;;;18.00;99.90;;;;;;5076161;28;20048;-65
2022/06/08 08:11:53;;;;;;;1.38;1.25;;;18.20;99.90;;;;;;5093678;28;20051;-65
2022/06/08 08:14:23;;;;;;;1.27;1.17;;;18.50;99.90;;;;;;5071894;28;20044;-65
2022/06/08 08:16:50;;;;;;;4.15;1.30;;;18.70;99.90;;;;;;5090100;28;20411;-65
2022/06/08 08:19:19;;;;;;;3.22;1.08;;;18.80;99.90;;;;;;5073623;28;20037;-66
2022/06/08 08:21:47;;;;;;;1.10;1.00;;;18.80;99.90;;;;;;5093316;28;20040;-65
2022/06/08 08:24:14;;;;;;;1.42;1.00;;;18.90;99.90;;;;;;5087328;28;20047;-65
2022/06/08 08:26:44;;;;;;;2.15;1.10;;;18.90;99.90;;;;;;5081695;28;20040;-65
2022/06/08 08:29:13;;;;;;;1.45;1.08;;;19.10;99.90;;;;;;5072710;28;20045;-66
2022/06/08 08:31:40;;;;;;;3.10;1.30;;;19.10;99.90;;;;;;5073674;28;20047;-66
2022/06/08 08:34:08;;;;;;;3.78;1.27;;;19.10;99.90;;;;;;5085318;28;20052;-66
2022/06/08 08:36:35;;;;;;;6.18;1.10;;;19.30;99.90;;;;;;5076311;28;20378;-66
2022/06/08 08:39:03;;;;;;;0.80;0.75;;;19.40;99.90;;;;;;5073345;28;20166;-65
2022/06/08 08:44:40;;;;;;;4.40;1.08;;;19.20;99.90;;;;;;5073537;28;20052;-66
2022/06/08 08:47:31;;;;;;;3.58;0.90;;;19.20;99.90;;;;;;5073014;28;20047;-65
2022/06/08 08:50:18;;;;;;;0.70;0.70;;;19.10;99.90;;;;;;5066269;28;20044;-65
2022/06/08 08:53:05;;;;;;;1.52;1.00;;;19.20;99.90;;;;;;5085941;28;20413;-66
2022/06/08 08:55:58;;;;;;;0.98;0.80;;;19.50;99.90;;;;;;5093368;28;20040;-66
2022/06/08 08:58:34;;;;;;;3.30;0.73;;;19.70;99.90;;;;;;5091972;28;20036;-66
2022/06/08 09:01:15;;;;;;;4.20;0.90;;;20.00;99.90;;;;;;5099193;28;20036;-66
2022/06/08 09:03:48;;;;;;;3.00;1.00;;;20.20;99.90;;;;;;5102852;28;20044;-66
2022/06/08 09:06:18;;;;;;;2.15;0.63;;;20.30;99.90;;;;;;5092728;28;20048;-66
2022/06/08 09:08:52;;;;;;;2.55;0.90;;;20.50;99.90;;;;;;5090964;28;20043;-65
2022/06/08 09:11:23;;;;;;;1.85;0.80;;;20.60;99.90;;;;;;5072666;28;20052;-65
2022/06/08 09:13:54;;;;;;;1.50;0.70;;;20.50;99.90;;;;;;5079225;28;20047;-65
2022/06/08 09:16:25;;;;;;;8.30;1.00;;;20.30;99.90;;;;;;5080787;28;20067;-65
2022/06/08 09:18:52;;;;;;;0.82;0.65;;;20.00;99.90;;;;;;5092115;28;20036;-65
2022/06/08 09:21:32;;;;;;;2.30;0.77;;;19.90;99.90;;;;;;5092481;28;20036;-65
2022/06/08 09:24:17;;;;;;;2.25;0.93;;;19.70;99.90;;;;;;5073812;28;20063;-65
2022/06/08 09:26:44;;;;;;;3.83;1.00;;;19.80;99.90;;;;;;5092900;28;20044;-65
2022/06/08 09:29:16;;;;;;;4.07;0.80;;;20.00;99.90;;;;;;5092072;28;20055;-65
2022/06/08 09:31:45;;;;;;;1.73;0.82;;;20.00;99.90;;;;;;5070693;28;20051;-65
2022/06/08 09:34:23;;;;;;;3.47;1.05;;;19.90;99.90;;;;;;5080690;28;20040;-65
2022/06/08 09:37:12;;;;;;;2.47;1.00;;;19.90;99.90;;;;;;5072379;28;20041;-65
2022/06/08 09:39:44;;;;;;;2.00;0.98;;;20.40;99.90;;;;;;5100770;28;20043;-65
2022/06/08 09:42:15;;;;;;;2.83;1.30;;;20.40;99.90;;;;;;5083347;28;20043;-65
2022/06/08 09:44:55;;;;;;;1.13;0.80;;;20.30;99.90;;;;;;5084063;28;20032;-65
2022/06/08 09:53:22;;;;;;;2.95;1.17;;;20.90;99.90;;;;;;5080449;28;20532;-65
2022/06/08 09:55:57;;;;;;;1.67;0.80;;;20.80;99.90;;;;;;5071983;28;20051;-65
2022/06/08 09:58:39;;;;;;;1.02;0.80;;;20.60;99.90;;;;;;5072054;28;20048;-65
2022/06/08 10:01:11;;;;;;;4.22;0.95;;;20.50;99.90;;;;;;5085812;28;20331;-65
2022/06/08 10:03:55;;;;;;;0.80;0.80;;;20.70;99.90;;;;;;5074443;28;20106;-66
2022/06/08 10:06:35;;;;;;;1.73;0.70;;;20.90;99.90;;;;;;5072058;28;20507;-66
2022/06/08 10:09:30;;;;;;;0.70;0.70;;;21.00;99.90;;;;;;5072503;28;20044;-65
2022/06/08 10:12:14;;;;;;;0.82;0.57;;;20.90;99.90;;;;;;5088160;28;20115;-66
2022/06/08 10:15:02;;;;;;;1.27;0.60;;;20.90;99.90;;;;;;5071971;28;20052;-65
2022/06/08 10:17:45;;;;;;;1.27;0.70;;;20.90;99.90;;;;;;5071770;28;20046;-66
2022/06/08 10:20:17;;;;;;;9.10;1.10;;;20.60;99.90;;;;;;5084651;28;20067;-66
2022/06/08 10:22:48;;;;;;;2.58;0.88;;;21.00;99.90;;;;;;5081759;28;20049;-65
2022/06/08 10:25:26;;;;;;;1.90;0.98;;;21.30;99.90;;;;;;5071825;28;20059;-65
2022/06/08 10:27:57;;;;;;;1.58;0.80;;;21.40;99.90;;;;;;5073824;28;20051;-66
2022/06/08 10:30:32;;;;;;;1.30;0.60;;;21.40;99.90;;;;;;5095731;28;20047;-66
2022/06/08 10:33:10;;;;;;;0.93;0.90;;;21.40;99.90;;;;;;5101194;28;20035;-65
2022/06/08 10:35:46;;;;;;;2.35;0.80;;;21.70;99.90;;;;;;5084286;28;20046;-66
2022/06/08 10:38:21;;;;;;;2.08;1.20;;;21.70;99.90;;;;;;5096117;28;20036;-66
2022/06/08 10:44:01;;;;;;;1.77;0.68;;;22.00;99.90;;;;;;5064474;28;20044;-66
2022/06/08 10:46:46;;;;;;;1.27;0.80;;;21.80;99.90;;;;;;5082237;28;20105;-66
2022/06/08 10:49:40;;;;;;;2.30;0.80;;;21.70;99.90;;;;;;5071379;28;20086;-66
2022/06/08 10:52:29;;;;;;;1.42;0.70;;;21.80;99.90;;;;;;5037224;28;20051;-66
2022/06/08 10:55:14;;;;;;;0.90;0.68;;;21.80;99.90;;;;;;5103380;28;20109;-65
2022/06/08 10:58:04;;;;;;;0.82;0.70;;;21.80;99.90;;;;;;5104384;28;20480;-66
2022/06/08 11:00:52;;;;;;;1.20;0.75;;;22.10;99.90;;;;;;5108758;28;20063;-66
2022/06/08 11:03:32;;;;;;;0.70;0.60;;;22.20;99.90;;;;;;5085941;28;20043;-66
2022/06/08 11:05:59;;;;;;;1.17;0.60;;;22.10;99.90;;;;;;5098048;28;20485;-66
2022/06/08 11:08:51;;;;;;;;;;;22.30;99.90;;;;;;5102324;28;20491;-66
2022/06/08 11:11:39;;;;;;;2.92;0.82;;;22.30;99.90;;;;;;5097890;28;20368;-66
2022/06/08 11:14:29;;;;;;;3.13;0.80;;;22.40;99.90;;;;;;5101073;28;20036;-66
2022/06/08 11:17:02;;;;;;;1.38;0.65;;;22.50;99.90;;;;;;5099456;28;20045;-66
2022/06/08 11:19:31;;;;;;;0.93;0.57;;;22.70;99.90;;;;;;5093907;28;20043;-66
2022/06/08 11:22:02;;;;;;;1.60;0.88;;;23.00;99.90;;;;;;5098474;28;20039;-65
2022/06/08 11:24:44;;;;;;;0.53;0.50;;;23.00;99.90;;;;;;5099144;28;20036;-66
2022/06/08 11:27:11;;;;;;;0.73;0.70;;;22.90;99.90;;;;;;5096597;28;20338;-66
2022/06/08 11:29:50;;;;;;;2.15;0.80;;;23.10;99.90;;;;;;5099890;28;20044;-66
2022/06/08 11:32:26;;;;;;;3.30;0.60;;;23.30;99.90;;;;;;5099372;28;20036;-66
2022/06/08 11:35:14;;;;;;;0.80;0.80;;;23.40;99.90;;;;;;5096968;28;20044;-66
2022/06/08 11:38:12;;;;;;;0.75;0.60;;;23.30;99.90;;;;;;5092249;28;20044;-66
2022/06/08 11:40:46;;;;;;;0.77;0.60;;;23.20;99.90;;;;;;5103914;22;20052;-66
2022/06/08 11:44:22;;;;;;;2.45;0.90;;;23.40;99.90;;;;;;5083927;28;20044;-67
2022/06/08 11:46:53;;;;;;;1.20;0.50;;;23.40;99.90;;;;;;5090003;28;20043;-67
2022/06/08 11:49:30;;;;;;;0.70;0.70;;;23.60;99.90;;;;;;5084165;28;20044;-67
2022/06/08 11:51:57;;;;;;;4.05;0.90;;;23.80;99.90;;;;;;5090031;28;20051;-67
2022/06/08 11:54:29;;;;;;;0.90;0.65;;;23.80;99.90;;;;;;5090552;28;20036;-67
2022/06/08 11:57:11;;;;;;;2.08;0.60;;;23.90;99.90;;;;;;5086787;28;20036;-67
2022/06/08 11:59:40;;;;;;;1.00;0.70;;;24.00;99.90;;;;;;5072444;28;20036;-67
2022/06/08 12:02:26;;;;;;;0.52;0.52;;;23.80;99.90;;;;;;5090061;28;20048;-67
2022/06/08 12:04:56;;;;;;;1.30;0.70;;;23.80;99.90;;;;;;5092816;28;20036;-67
2022/06/08 12:07:41;;;;;;;2.25;0.50;;;23.90;99.90;;;;;;5092750;28;20050;-68
2022/06/08 12:10:16;;;;;;;1.95;0.80;;;23.80;99.90;;;;;;5090151;28;20399;-66
2022/06/08 12:12:44;;;;;;;4.38;1.10;;;24.00;99.90;;;;;;5090155;28;20047;-70
2022/06/08 12:15:32;;;;;;;2.35;0.80;;;24.30;99.90;;;;;;5087425;28;20062;-68
2022/06/08 12:18:28;;;;;;;;;;;24.30;99.90;;;;;;5094185;28;20051;-69
2022/06/08 12:21:17;;;;;;;0.88;0.80;;;24.10;99.90;;;;;;5058417;28;19960;-71
2022/06/08 12:23:55;;;;;;;0.75;0.70;;;24.30;99.90;;;;;;5075815;28;20044;-70
2022/06/08 12:26:24;;;;;;;0.93;0.80;;;24.40;99.90;;;;;;5094015;28;20067;-69
2022/06/08 12:29:13;;;;;;;2.28;0.90;;;24.20;99.90;;;;;;5090061;28;20072;-68
2022/06/08 12:31:57;;;;;;;0.60;0.60;;;24.00;99.90;;;;;;5083162;28;20090;-75
2022/06/08 12:34:34;;;;;;;;;;;23.80;99.90;;;;;;5091720;28;20115;-74
2022/06/08 12:37:25;;;;;;;3.17;0.68;;;23.90;99.90;;;;;;5092308;28;20327;-75
2022/06/08 12:39:58;;;;;;;2.42;0.98;;;24.30;99.90;;;;;;5091976;28;20036;-75
2022/06/08 12:42:33;;;;;;;0.68;0.60;;;24.50;99.90;;;;;;5090761;28;20044;-75
2022/06/08 12:45:02;;;;;;;0.88;0.60;;;24.50;99.90;;;;;;5091555;28;20067;-75
2022/06/08 12:47:40;;;;;;;2.33;0.77;;;24.70;99.90;;;;;;5092814;28;20032;-75
2022/06/08 12:50:14;;;;;;;3.95;1.00;;;24.70;99.90;;;;;;5093509;28;20051;-76
2022/06/08 12:52:43;;;;;;;1.17;0.70;;;24.70;99.90;;;;;;5092696;28;20056;-76
2022/06/08 12:55:19;;;;;;;2.70;0.85;;;24.70;99.90;;;;;;5092282;28;20115;-74
2022/06/08 12:57:46;;;;;;;2.22;0.70;;;24.90;99.90;;;;;;5075218;28;20386;-60
2022/06/08 13:00:20;;;;;;;2.55;0.80;;;24.50;99.90;;;;;;5072663;28;20044;-78
2022/06/08 13:02:47;;;;;;;1.05;0.70;;;24.30;99.90;;;;;;5075287;28;20052;-77
2022/06/08 13:05:22;;;;;;;;;;;24.10;99.90;;;;;;5087891;28;20047;-78
2022/06/08 13:07:50;;;;;;;1.98;0.77;;;23.90;99.90;;;;;;5073052;28;20373;-78
2022/06/08 13:10:17;;;;;;;2.55;0.85;;;24.00;99.90;;;;;;5072781;28;20449;-77
2022/06/08 13:12:47;;;;;;;3.70;0.77;;;24.00;99.90;;;;;;5081009;28;20381;-77
2022/06/08 13:15:19;;;;;;;3.60;1.20;;;24.00;99.90;;;;;;5086950;28;20055;-77
2022/06/08 13:17:47;;;;;;;1.02;0.80;;;24.10;99.90;;;;;;5073122;28;20523;-78
2022/06/08 13:20:20;;;;;;;6.45;0.88;;;24.30;99.90;;;;;;5072660;28;20044;-77
2022/06/08 13:22:47;;;;;;;0.82;0.80;;;24.50;99.90;;;;;;5082076;28;20051;-77
2022/06/08 13:25:25;;;;;;;2.38;0.80;;;24.50;99.90;;;;;;5085752;28;20102;-77
2022/06/08 13:27:54;;;;;;;4.53;0.90;;;24.30;99.90;;;;;;5072474;28;20049;-76
2022/06/08 13:30:27;;;;;;;1.23;0.80;;;24.20;99.90;;;;;;5080534;28;20032;-77
2022/06/08 13:32:55;;;;;;;3.53;0.93;;;24.10;99.90;;;;;;5081323;28;20040;-76
2022/06/08 13:35:23;;;;;;;1.25;0.90;;;24.30;99.90;;;;;;5072506;28;20059;-77
2022/06/08 13:37:51;;;;;;;1.38;0.93;;;24.20;99.90;;;;;;5073688;28;20049;-76
2022/06/08 13:40:27;;;;;;;6.22;0.90;;;24.00;99.90;;;;;;5091901;28;20044;-76
2022/06/08 13:42:55;;;;;;;3.55;1.00;;;24.10;99.90;;;;;;5072841;28;20063;-75